sensor_id;sensor_type;location;lat;lon;timestamp;temperature;humidity
4556;DHT22;2290;48.674;9.018;2023-03-01T00:00:38;0.20;99.90
4556;DHT22;2290;48.674;9.018;2023-03-01T00:03:04;0.10;99.90
4556;DHT22;2290;48.674;9.018;2023-03-01T00:05:29;-0.10;99.90
4556;DHT22;2290;48.674;9.018;2023-03-01T00:07:55;0.00;99.90
4556;DHT22;2290;48.674;9.018;2023-03-01T00:10:22;0.00;99.90
4556;DHT22;2290;48.674;9.018;2023-03-01T00:12:47;0.00;99.90
4556;DHT22;2290;48.674;9.018;2023-03-01T00:15:13;0.00;99.90
4556;DHT22;2290;48.674;9.018;2023-03-01T00:17:38;0.00;99.90
4556;DHT22;2290;48.674;9.018;2023-03-01T00:20:04;0.00;99.90
4556;DHT22;2290;48.674;9.018;2023-03-01T00:22:33;-0.10;99.90
4556;DHT22;2290;48.674;9.018;2023-03-01T00:24:59;-0.10;99.90
4556;DHT22;2290;48.674;9.018;2023-03-01T00:27:27;0.00;99.90
4556;DHT22;2290;48.674;9.018;2023-03-01T00:29:52;0.10;99.90
4556;DHT22;2290;48.674;9.018;2023-03-01T00:32:18;0.00;99.90
4556;DHT22;2290;48.674;9.018;2023-03-01T00:34:44;0.00;99.90
4556;DHT22;2290;48.674;9.018;2023-03-01T00:37:20;0.00;99.90
4556;DHT22;2290;48.674;9.018;2023-03-01T00:39:46;0.00;99.90
4556;DHT22;2290;48.674;9.018;2023-03-01T00:42:11;0.00;99.90
4556;DHT22;2290;48.674;9.018;2023-03-01T00:44:37;0.00;99.90
4556;DHT22;2290;48.674;9.018;2023-03-01T00:47:02;0.00;99.90
4556;DHT22;2290;48.674;9.018;2023-03-01T00:49:28;-0.10;99.90
4556;DHT22;2290;48.674;9.018;2023-03-01T00:51:53;-0.20;99.90
4556;DHT22;2290;48.674;9.018;2023-03-01T00:54:19;-0.20;99.90
4556;DHT22;2290;48.674;9.018;2023-03-01T00:56:44;-0.10;99.90
4556;DHT22;2290;48.674;9.018;2023-03-01T00:59:10;-0.20;99.90
4556;DHT22;2290;48.674;9.018;2023-03-01T01:01:37;-0.30;99.90
4556;DHT22;2290;48.674;9.018;2023-03-01T01:04:05;-0.30;99.90
4556;DHT22;2290;48.674;9.018;2023-03-01T01:06:35;-0.30;99.90
4556;DHT22;2290;48.674;9.018;2023-03-01T01:09:01;-0.30;99.90
4556;DHT22;2290;48.674;9.018;2023-03-01T01:11:29;-0.30;99.90
4556;DHT22;2290;48.674;9.018;2023-03-01T01:13:55;-0.20;99.90
4556;DHT22;2290;48.674;9.018;2023-03-01T01:16:23;-0.20;99.90
4556;DHT22;2290;48.674;9.018;2023-03-01T01:18:49;-0.30;99.90
4556;DHT22;2290;48.674;9.018;2023-03-01T01:21:18;-0.30;99.90
4556;DHT22;2290;48.674;9.018;2023-03-01T01:23:45;-0.20;99.90
4556;DHT22;2290;48.674;9.018;2023-03-01T01:26:14;-0.20;99.90
4556;DHT22;2290;48.674;9.018;2023-03-01T01:28:40;-0.20;99.90
4556;DHT22;2290;48.674;9.018;2023-03-01T01:31:06;-0.30;99.90
4556;DHT22;2290;48.674;9.018;2023-03-01T01:33:32;-0.30;99.90
4556;DHT22;2290;48.674;9.018;2023-03-01T01:35:58;-0.40;99.90
4556;DHT22;2290;48.674;9.018;2023-03-01T01:38:23;-0.40;99.90
4556;DHT22;2290;48.674;9.018;2023-03-01T01:40:50;-0.20;99.90
4556;DHT22;2290;48.674;9.018;2023-03-01T01:43:28;-0.20;99.90
4556;DHT22;2290;48.674;9.018;2023-03-01T01:46:06;-0.20;99.90
4556;DHT22;2290;48.674;9.018;2023-03-01T01:48:48;-0.30;99.90
4556;DHT22;2290;48.674;9.018;2023-03-01T01:51:20;-0.30;99.90
4556;DHT22;2290;48.674;9.018;2023-03-01T01:53:52;-0.30;99.90
4556;DHT22;2290;48.674;9.018;2023-03-01T01:56:19;-0.30;99.90
4556;DHT22;2290;48.674;9.018;2023-03-01T01:58:45;-0.20;99.90
4556;DHT22;2290;48.674;9.018;2023-03-01T02:01:13;-0.10;99.90
4556;DHT22;2290;48.674;9.018;2023-03-01T02:03:40;-0.20;99.90
4556;DHT22;2290;48.674;9.018;2023-03-01T02:06:17;-0.10;99.90
4556;DHT22;2290;48.674;9.018;2023-03-01T02:08:45;-0.20;99.90
4556;DHT22;2290;48.674;9.018;2023-03-01T02:11:13;-0.20;99.90
4556;DHT22;2290;48.674;9.018;2023-03-01T02:13:44;-0.20;99.90
4556;DHT22;2290;48.674;9.018;2023-03-01T02:16:12;-0.20;99.90
4556;DHT22;2290;48.674;9.018;2023-03-01T02:18:40;-0.20;99.90
4556;DHT22;2290;48.674;9.018;2023-03-01T02:23:50;-0.20;99.90
4556;DHT22;2290;48.674;9.018;2023-03-01T02:26:29;-0.20;99.90
4556;DHT22;2290;48.674;9.018;2023-03-01T02:28:58;-0.10;99.90
4556;DHT22;2290;48.674;9.018;2023-03-01T02:31:24;-0.10;99.90
4556;DHT22;2290;48.674;9.018;2023-03-01T02:34:11;0.00;99.90
4556;DHT22;2290;48.674;9.018;2023-03-01T02:36:42;0.10;99.90
4556;DHT22;2290;48.674;9.018;2023-03-01T02:39:17;0.10;99.90
4556;DHT22;2290;48.674;9.018;2023-03-01T02:41:48;0.20;99.90
4556;DHT22;2290;48.674;9.018;2023-03-01T02:44:15;0.30;99.90
4556;DHT22;2290;48.674;9.018;2023-03-01T02:46:47;0.40;99.90
4556;DHT22;2290;48.674;9.018;2023-03-01T02:49:20;0.40;99.90
4556;DHT22;2290;48.674;9.018;2023-03-01T02:51:56;0.30;99.90
4556;DHT22;2290;48.674;9.018;2023-03-01T02:56:56;0.20;99.90
4556;DHT22;2290;48.674;9.018;2023-03-01T02:59:26;0.30;99.90
4556;DHT22;2290;48.674;9.018;2023-03-01T03:01:53;0.40;99.90
4556;DHT22;2290;48.674;9.018;2023-03-01T03:04:22;0.40;99.90
4556;DHT22;2290;48.674;9.018;2023-03-01T03:06:49;0.40;99.90
4556;DHT22;2290;48.674;9.018;2023-03-01T03:09:15;0.40;99.90
4556;DHT22;2290;48.674;9.018;2023-03-01T03:11:41;0.40;99.90
4556;DHT22;2290;48.674;9.018;2023-03-01T03:14:09;0.50;99.90
4556;DHT22;2290;48.674;9.018;2023-03-01T03:16:46;0.50;99.90
4556;DHT22;2290;48.674;9.018;2023-03-01T03:19:12;0.50;99.90
4556;DHT22;2290;48.674;9.018;2023-03-01T03:21:40;0.50;99.90
4556;DHT22;2290;48.674;9.018;2023-03-01T03:24:05;0.50;99.90
4556;DHT22;2290;48.674;9.018;2023-03-01T03:26:31;0.60;99.90
4556;DHT22;2290;48.674;9.018;2023-03-01T03:28:57;0.60;99.90
4556;DHT22;2290;48.674;9.018;2023-03-01T03:31:22;0.60;99.90
4556;DHT22;2290;48.674;9.018;2023-03-01T03:33:48;0.50;99.90
4556;DHT22;2290;48.674;9.018;2023-03-01T03:36:21;0.50;99.90
4556;DHT22;2290;48.674;9.018;2023-03-01T03:38:47;0.60;99.90
4556;DHT22;2290;48.674;9.018;2023-03-01T03:41:14;0.60;99.90
4556;DHT22;2290;48.674;9.018;2023-03-01T03:43:40;0.60;99.90
4556;DHT22;2290;48.674;9.018;2023-03-01T03:46:08;0.70;99.90
4556;DHT22;2290;48.674;9.018;2023-03-01T03:48:40;0.70;99.90
4556;DHT22;2290;48.674;9.018;2023-03-01T03:51:08;0.70;99.90
4556;DHT22;2290;48.674;9.018;2023-03-01T03:53:35;0.70;99.90
4556;DHT22;2290;48.674;9.018;2023-03-01T03:56:00;0.70;99.90
4556;DHT22;2290;48.674;9.018;2023-03-01T03:58:26;0.70;99.90
4556;DHT22;2290;48.674;9.018;2023-03-01T04:00:54;0.80;99.90
4556;DHT22;2290;48.674;9.018;2023-03-01T04:03:22;0.80;99.90
4556;DHT22;2290;48.674;9.018;2023-03-01T04:05:49;0.80;99.90
4556;DHT22;2290;48.674;9.018;2023-03-01T04:08:20;0.80;99.90
4556;DHT22;2290;48.674;9.018;2023-03-01T04:10:48;0.80;99.90
4556;DHT22;2290;48.674;9.018;2023-03-01T04:13:21;0.80;99.90
4556;DHT22;2290;48.674;9.018;2023-03-01T04:15:50;0.80;99.90
4556;DHT22;2290;48.674;9.018;2023-03-01T04:18:20;0.80;99.90
4556;DHT22;2290;48.674;9.018;2023-03-01T04:20:46;0.80;99.90
4556;DHT22;2290;48.674;9.018;2023-03-01T04:23:14;0.80;99.90
4556;DHT22;2290;48.674;9.018;2023-03-01T04:25:52;0.70;99.90
4556;DHT22;2290;48.674;9.018;2023-03-01T04:28:34;0.70;99.90
4556;DHT22;2290;48.674;9.018;2023-03-01T04:31:09;0.70;99.90
4556;DHT22;2290;48.674;9.018;2023-03-01T04:33:39;0.80;99.90
4556;DHT22;2290;48.674;9.018;2023-03-01T04:36:06;0.80;99.90
4556;DHT22;2290;48.674;9.018;2023-03-01T04:38:34;0.80;99.90
4556;DHT22;2290;48.674;9.018;2023-03-01T04:41:00;0.90;99.90
4556;DHT22;2290;48.674;9.018;2023-03-01T04:43:25;0.90;99.90
4556;DHT22;2290;48.674;9.018;2023-03-01T04:45:51;0.90;99.90
4556;DHT22;2290;48.674;9.018;2023-03-01T04:48:16;0.90;99.90
4556;DHT22;2290;48.674;9.018;2023-03-01T04:50:43;0.90;99.90
4556;DHT22;2290;48.674;9.018;2023-03-01T04:53:09;0.80;99.90
4556;DHT22;2290;48.674;9.018;2023-03-01T04:55:34;0.90;99.90
4556;DHT22;2290;48.674;9.018;2023-03-01T04:58:00;0.90;99.90
4556;DHT22;2290;48.674;9.018;2023-03-01T05:00:26;0.90;99.90
4556;DHT22;2290;48.674;9.018;2023-03-01T05:03:00;0.80;99.90
4556;DHT22;2290;48.674;9.018;2023-03-01T05:05:28;0.80;99.90
4556;DHT22;2290;48.674;9.018;2023-03-01T05:08:05;0.80;99.90
4556;DHT22;2290;48.674;9.018;2023-03-01T05:20:41;0.90;99.90
4556;DHT22;2290;48.674;9.018;2023-03-01T05:23:07;0.90;99.90
4556;DHT22;2290;48.674;9.018;2023-03-01T05:25:33;1.00;99.90
4556;DHT22;2290;48.674;9.018;2023-03-01T05:28:02;0.90;99.90
4556;DHT22;2290;48.674;9.018;2023-03-01T05:30:33;1.00;99.90
4556;DHT22;2290;48.674;9.018;2023-03-01T05:32:58;1.00;99.90
4556;DHT22;2290;48.674;9.018;2023-03-01T05:35:24;0.90;99.90
4556;DHT22;2290;48.674;9.018;2023-03-01T05:37:50;1.00;99.90
4556;DHT22;2290;48.674;9.018;2023-03-01T05:40:19;1.00;99.90
4556;DHT22;2290;48.674;9.018;2023-03-01T05:42:50;1.00;99.90
4556;DHT22;2290;48.674;9.018;2023-03-01T05:45:17;1.00;99.90
4556;DHT22;2290;48.674;9.018;2023-03-01T05:47:51;1.00;99.90
4556;DHT22;2290;48.674;9.018;2023-03-01T05:50:27;1.00;99.90
4556;DHT22;2290;48.674;9.018;2023-03-01T05:53:52;1.00;99.90
4556;DHT22;2290;48.674;9.018;2023-03-01T05:56:30;1.10;99.90
4556;DHT22;2290;48.674;9.018;2023-03-01T05:59:02;1.10;99.90
4556;DHT22;2290;48.674;9.018;2023-03-01T06:01:46;1.00;99.90
4556;DHT22;2290;48.674;9.018;2023-03-01T06:04:18;1.10;99.90
4556;DHT22;2290;48.674;9.018;2023-03-01T06:07:01;1.10;99.90
4556;DHT22;2290;48.674;9.018;2023-03-01T06:09:52;1.10;99.90
4556;DHT22;2290;48.674;9.018;2023-03-01T06:12:25;1.10;99.90
4556;DHT22;2290;48.674;9.018;2023-03-01T06:15:00;1.10;99.90
4556;DHT22;2290;48.674;9.018;2023-03-01T06:17:28;1.10;99.90
4556;DHT22;2290;48.674;9.018;2023-03-01T06:19:54;1.00;99.90
4556;DHT22;2290;48.674;9.018;2023-03-01T06:22:19;1.00;99.90
4556;DHT22;2290;48.674;9.018;2023-03-01T06:24:45;0.90;99.90
4556;DHT22;2290;48.674;9.018;2023-03-01T06:27:10;1.00;99.90
4556;DHT22;2290;48.674;9.018;2023-03-01T06:29:38;1.00;99.90
4556;DHT22;2290;48.674;9.018;2023-03-01T06:32:03;1.00;99.90
4556;DHT22;2290;48.674;9.018;2023-03-01T06:34:29;1.10;99.90
4556;DHT22;2290;48.674;9.018;2023-03-01T06:36:55;1.10;99.90
4556;DHT22;2290;48.674;9.018;2023-03-01T06:39:20;1.20;99.90
4556;DHT22;2290;48.674;9.018;2023-03-01T06:41:46;1.20;99.90
4556;DHT22;2290;48.674;9.018;2023-03-01T06:44:11;1.20;99.90
4556;DHT22;2290;48.674;9.018;2023-03-01T06:46:38;1.30;99.90
4556;DHT22;2290;48.674;9.018;2023-03-01T06:49:04;1.30;99.90
4556;DHT22;2290;48.674;9.018;2023-03-01T06:51:33;1.30;99.90
4556;DHT22;2290;48.674;9.018;2023-03-01T06:53:58;1.40;99.90
4556;DHT22;2290;48.674;9.018;2023-03-01T06:56:24;1.30;99.90
4556;DHT22;2290;48.674;9.018;2023-03-01T06:58:50;1.40;99.90
4556;DHT22;2290;48.674;9.018;2023-03-01T07:01:15;1.40;99.90
4556;DHT22;2290;48.674;9.018;2023-03-01T07:03:41;1.60;99.90
4556;DHT22;2290;48.674;9.018;2023-03-01T07:06:10;1.60;99.90
4556;DHT22;2290;48.674;9.018;2023-03-01T07:08:35;1.60;99.90
4556;DHT22;2290;48.674;9.018;2023-03-01T07:11:01;1.70;99.90
4556;DHT22;2290;48.674;9.018;2023-03-01T07:13:29;1.70;99.90
4556;DHT22;2290;48.674;9.018;2023-03-01T07:15:54;1.70;99.90
4556;DHT22;2290;48.674;9.018;2023-03-01T07:18:20;1.70;99.90
4556;DHT22;2290;48.674;9.018;2023-03-01T07:20:45;1.60;99.90
4556;DHT22;2290;48.674;9.018;2023-03-01T07:23:11;1.60;99.90
4556;DHT22;2290;48.674;9.018;2023-03-01T07:25:36;1.60;99.90
4556;DHT22;2290;48.674;9.018;2023-03-01T07:28:02;1.50;99.90
4556;DHT22;2290;48.674;9.018;2023-03-01T07:30:28;1.50;99.90
4556;DHT22;2290;48.674;9.018;2023-03-01T07:32:54;1.50;99.90
4556;DHT22;2290;48.674;9.018;2023-03-01T07:35:21;1.50;99.90
4556;DHT22;2290;48.674;9.018;2023-03-01T07:37:48;1.50;99.90
4556;DHT22;2290;48.674;9.018;2023-03-01T07:40:15;1.40;99.90
4556;DHT22;2290;48.674;9.018;2023-03-01T07:42:40;1.50;99.90
4556;DHT22;2290;48.674;9.018;2023-03-01T07:45:06;1.60;99.90
4556;DHT22;2290;48.674;9.018;2023-03-01T07:47:32;1.60;99.90
4556;DHT22;2290;48.674;9.018;2023-03-01T07:49:58;1.80;99.90
4556;DHT22;2290;48.674;9.018;2023-03-01T07:52:25;1.80;99.90
4556;DHT22;2290;48.674;9.018;2023-03-01T07:54:51;1.80;99.90
4556;DHT22;2290;48.674;9.018;2023-03-01T07:57:16;1.80;99.90
4556;DHT22;2290;48.674;9.018;2023-03-01T07:59:42;1.90;99.90
4556;DHT22;2290;48.674;9.018;2023-03-01T08:02:09;1.90;99.90
4556;DHT22;2290;48.674;9.018;2023-03-01T08:04:35;2.00;99.90
4556;DHT22;2290;48.674;9.018;2023-03-01T08:07:00;2.10;99.90
4556;DHT22;2290;48.674;9.018;2023-03-01T08:09:26;2.10;99.90
4556;DHT22;2290;48.674;9.018;2023-03-01T08:11:51;2.20;99.90
4556;DHT22;2290;48.674;9.018;2023-03-01T08:14:18;2.30;99.90
4556;DHT22;2290;48.674;9.018;2023-03-01T08:16:44;2.40;99.90
4556;DHT22;2290;48.674;9.018;2023-03-01T08:19:11;2.40;99.90
4556;DHT22;2290;48.674;9.018;2023-03-01T08:21:37;2.40;99.90
4556;DHT22;2290;48.674;9.018;2023-03-01T08:24:05;2.40;99.90
4556;DHT22;2290;48.674;9.018;2023-03-01T08:26:31;2.40;99.90
4556;DHT22;2290;48.674;9.018;2023-03-01T08:29:26;2.50;99.90
4556;DHT22;2290;48.674;9.018;2023-03-01T08:36:01;2.80;99.90
4556;DHT22;2290;48.674;9.018;2023-03-01T08:38:26;2.90;99.90
4556;DHT22;2290;48.674;9.018;2023-03-01T08:40:52;2.90;99.90
4556;DHT22;2290;48.674;9.018;2023-03-01T08:43:25;3.00;99.90
4556;DHT22;2290;48.674;9.018;2023-03-01T08:45:52;3.10;99.90
4556;DHT22;2290;48.674;9.018;2023-03-01T08:48:17;3.20;99.90
4556;DHT22;2290;48.674;9.018;2023-03-01T08:50:44;3.20;99.90
4556;DHT22;2290;48.674;9.018;2023-03-01T08:53:10;3.20;99.90
4556;DHT22;2290;48.674;9.018;2023-03-01T08:55:36;3.30;99.90
4556;DHT22;2290;48.674;9.018;2023-03-01T08:58:02;3.70;99.90
4556;DHT22;2290;48.674;9.018;2023-03-01T09:00:27;3.90;99.90
4556;DHT22;2290;48.674;9.018;2023-03-01T09:02:53;4.00;99.90
4556;DHT22;2290;48.674;9.018;2023-03-01T09:05:18;4.00;99.90
4556;DHT22;2290;48.674;9.018;2023-03-01T09:07:56;4.00;99.90
4556;DHT22;2290;48.674;9.018;2023-03-01T09:10:25;3.70;99.90
4556;DHT22;2290;48.674;9.018;2023-03-01T09:12:52;3.70;99.90
4556;DHT22;2290;48.674;9.018;2023-03-01T09:21:58;3.80;99.90
4556;DHT22;2290;48.674;9.018;2023-03-01T09:24:24;4.00;99.90
4556;DHT22;2290;48.674;9.018;2023-03-01T09:26:54;3.90;99.90
4556;DHT22;2290;48.674;9.018;2023-03-01T09:29:21;3.90;99.90
4556;DHT22;2290;48.674;9.018;2023-03-01T09:31:48;3.80;99.90
4556;DHT22;2290;48.674;9.018;2023-03-01T09:34:14;3.90;99.90
4556;DHT22;2290;48.674;9.018;2023-03-01T09:36:49;4.10;99.90
4556;DHT22;2290;48.674;9.018;2023-03-01T09:39:16;4.30;99.90
4556;DHT22;2290;48.674;9.018;2023-03-01T09:42:00;4.50;99.90
4556;DHT22;2290;48.674;9.018;2023-03-01T09:47:05;4.70;99.90
4556;DHT22;2290;48.674;9.018;2023-03-01T09:49:40;4.80;99.90
4556;DHT22;2290;48.674;9.018;2023-03-01T09:52:19;4.80;99.90
4556;DHT22;2290;48.674;9.018;2023-03-01T09:54:50;4.90;99.90
4556;DHT22;2290;48.674;9.018;2023-03-01T09:57:25;4.90;99.90
4556;DHT22;2290;48.674;9.018;2023-03-01T10:00:15;5.10;99.90
4556;DHT22;2290;48.674;9.018;2023-03-01T10:03:41;5.30;99.90
4556;DHT22;2290;48.674;9.018;2023-03-01T10:05:59;5.40;99.90
4556;DHT22;2290;48.674;9.018;2023-03-01T10:08:38;5.30;99.90
4556;DHT22;2290;48.674;9.018;2023-03-01T10:13:55;5.30;99.90
4556;DHT22;2290;48.674;9.018;2023-03-01T10:16:34;5.30;99.90
4556;DHT22;2290;48.674;9.018;2023-03-01T10:19:03;5.30;99.90
4556;DHT22;2290;48.674;9.018;2023-03-01T10:21:30;5.40;99.90
4556;DHT22;2290;48.674;9.018;2023-03-01T10:24:11;5.40;99.90
4556;DHT22;2290;48.674;9.018;2023-03-01T10:26:58;5.40;99.90
4556;DHT22;2290;48.674;9.018;2023-03-01T10:29:34;5.60;99.90
4556;DHT22;2290;48.674;9.018;2023-03-01T10:32:04;5.70;99.90
4556;DHT22;2290;48.674;9.018;2023-03-01T10:34:34;6.00;99.90
4556;DHT22;2290;48.674;9.018;2023-03-01T10:37:12;6.20;99.90
4556;DHT22;2290;48.674;9.018;2023-03-01T10:40:09;6.40;99.90
4556;DHT22;2290;48.674;9.018;2023-03-01T11:00:24;6.60;99.90
4556;DHT22;2290;48.674;9.018;2023-03-01T11:05:33;7.10;99.70
4556;DHT22;2290;48.674;9.018;2023-03-01T11:18:24;7.20;99.50
4556;DHT22;2290;48.674;9.018;2023-03-01T11:20:53;7.40;99.40
4556;DHT22;2290;48.674;9.018;2023-03-01T11:23:22;7.60;99.20
4556;DHT22;2290;48.674;9.018;2023-03-01T11:25:56;7.80;99.30
4556;DHT22;2290;48.674;9.018;2023-03-01T11:28:22;7.90;98.90
4556;DHT22;2290;48.674;9.018;2023-03-01T11:31:13;8.00;98.40
4556;DHT22;2290;48.674;9.018;2023-03-01T11:34:09;8.00;98.70
4556;DHT22;2290;48.674;9.018;2023-03-01T11:36:56;8.10;98.70
4556;DHT22;2290;48.674;9.018;2023-03-01T11:40:03;8.30;98.40
4556;DHT22;2290;48.674;9.018;2023-03-01T11:45:12;8.40;97.90
4556;DHT22;2290;48.674;9.018;2023-03-01T11:51:05;8.60;97.90
4556;DHT22;2290;48.674;9.018;2023-03-01T11:53:43;8.70;97.00
4556;DHT22;2290;48.674;9.018;2023-03-01T11:59:56;8.70;97.90
4556;DHT22;2290;48.674;9.018;2023-03-01T12:11:23;9.30;97.00
4556;DHT22;2290;48.674;9.018;2023-03-01T12:14:27;9.40;97.30
4556;DHT22;2290;48.674;9.018;2023-03-01T12:25:25;9.40;95.80
4556;DHT22;2290;48.674;9.018;2023-03-01T12:28:00;9.40;96.10
4556;DHT22;2290;48.674;9.018;2023-03-01T12:30:56;9.50;96.00
4556;DHT22;2290;48.674;9.018;2023-03-01T12:38:49;9.90;95.10
4556;DHT22;2290;48.674;9.018;2023-03-01T12:44:22;10.10;94.60
4556;DHT22;2290;48.674;9.018;2023-03-01T12:47:12;10.20;94.60
4556;DHT22;2290;48.674;9.018;2023-03-01T12:49:44;10.20;94.10
4556;DHT22;2290;48.674;9.018;2023-03-01T12:52:12;10.30;94.50
4556;DHT22;2290;48.674;9.018;2023-03-01T12:54:39;10.30;93.80
4556;DHT22;2290;48.674;9.018;2023-03-01T12:57:26;10.40;94.10
4556;DHT22;2290;48.674;9.018;2023-03-01T13:00:17;10.60;93.60
4556;DHT22;2290;48.674;9.018;2023-03-01T13:06:01;10.50;93.40
4556;DHT22;2290;48.674;9.018;2023-03-01T13:09:04;10.70;93.30
4556;DHT22;2290;48.674;9.018;2023-03-01T13:11:27;10.70;93.00
4556;DHT22;2290;48.674;9.018;2023-03-01T13:16:49;10.90;93.00
4556;DHT22;2290;48.674;9.018;2023-03-01T13:19:22;11.00;93.00
4556;DHT22;2290;48.674;9.018;2023-03-01T13:21:50;11.20;92.90
4556;DHT22;2290;48.674;9.018;2023-03-01T13:24:37;11.40;92.90
4556;DHT22;2290;48.674;9.018;2023-03-01T13:29:52;11.60;92.10
4556;DHT22;2290;48.674;9.018;2023-03-01T13:32:33;11.70;92.30
4556;DHT22;2290;48.674;9.018;2023-03-01T13:37:41;12.00;91.40
4556;DHT22;2290;48.674;9.018;2023-03-01T13:42:48;12.20;91.30
4556;DHT22;2290;48.674;9.018;2023-03-01T13:47:46;12.00;91.00
4556;DHT22;2290;48.674;9.018;2023-03-01T13:50:21;12.00;91.40
4556;DHT22;2290;48.674;9.018;2023-03-01T13:52:54;11.90;91.00
4556;DHT22;2290;48.674;9.018;2023-03-01T13:57:59;12.60;90.40
4556;DHT22;2290;48.674;9.018;2023-03-01T14:00:35;13.20;90.20
4556;DHT22;2290;48.674;9.018;2023-03-01T14:03:03;13.60;89.60
4556;DHT22;2290;48.674;9.018;2023-03-01T14:05:30;14.50;88.80
4556;DHT22;2290;48.674;9.018;2023-03-01T14:07:56;15.70;87.40
4556;DHT22;2290;48.674;9.018;2023-03-01T14:10:27;17.10;84.20
4556;DHT22;2290;48.674;9.018;2023-03-01T14:13:20;18.10;81.00
4556;DHT22;2290;48.674;9.018;2023-03-01T14:16:26;19.00;78.20
4556;DHT22;2290;48.674;9.018;2023-03-01T14:18:58;19.60;75.30
4556;DHT22;2290;48.674;9.018;2023-03-01T14:21:26;21.00;71.80
4556;DHT22;2290;48.674;9.018;2023-03-01T14:23:52;21.60;68.10
4556;DHT22;2290;48.674;9.018;2023-03-01T14:26:23;21.70;65.70
4556;DHT22;2290;48.674;9.018;2023-03-01T14:28:49;21.90;63.50
4556;DHT22;2290;48.674;9.018;2023-03-01T14:31:36;22.10;62.60
4556;DHT22;2290;48.674;9.018;2023-03-01T14:34:02;22.40;60.70
4556;DHT22;2290;48.674;9.018;2023-03-01T14:36:30;22.80;59.80
4556;DHT22;2290;48.674;9.018;2023-03-01T14:38:56;22.60;59.80
4556;DHT22;2290;48.674;9.018;2023-03-01T14:41:27;22.90;59.20
4556;DHT22;2290;48.674;9.018;2023-03-01T14:49:02;22.40;56.60
4556;DHT22;2290;48.674;9.018;2023-03-01T14:51:28;22.40;56.50
4556;DHT22;2290;48.674;9.018;2023-03-01T14:53:55;22.50;56.80
4556;DHT22;2290;48.674;9.018;2023-03-01T14:56:21;22.90;57.10
4556;DHT22;2290;48.674;9.018;2023-03-01T14:58:50;22.60;55.20
4556;DHT22;2290;48.674;9.018;2023-03-01T15:01:19;22.70;55.30
4556;DHT22;2290;48.674;9.018;2023-03-01T15:03:49;22.60;55.30
4556;DHT22;2290;48.674;9.018;2023-03-01T15:06:18;22.60;55.10
4556;DHT22;2290;48.674;9.018;2023-03-01T15:08:50;22.60;54.30
4556;DHT22;2290;48.674;9.018;2023-03-01T15:11:30;22.50;54.60
4556;DHT22;2290;48.674;9.018;2023-03-01T15:13:57;22.50;54.20
4556;DHT22;2290;48.674;9.018;2023-03-01T15:16:26;22.50;54.40
4556;DHT22;2290;48.674;9.018;2023-03-01T15:19:02;22.30;53.80
4556;DHT22;2290;48.674;9.018;2023-03-01T15:21:37;22.30;53.70
4556;DHT22;2290;48.674;9.018;2023-03-01T15:26:52;21.90;54.20
4556;DHT22;2290;48.674;9.018;2023-03-01T15:29:28;21.40;54.90
4556;DHT22;2290;48.674;9.018;2023-03-01T15:34:35;21.40;54.40
4556;DHT22;2290;48.674;9.018;2023-03-01T15:37:05;21.50;54.60
4556;DHT22;2290;48.674;9.018;2023-03-01T15:39:33;21.40;54.00
4556;DHT22;2290;48.674;9.018;2023-03-01T15:42:04;21.00;54.60
4556;DHT22;2290;48.674;9.018;2023-03-01T15:44:35;20.70;55.10
4556;DHT22;2290;48.674;9.018;2023-03-01T15:47:21;20.50;55.10
4556;DHT22;2290;48.674;9.018;2023-03-01T15:49:47;20.40;55.20
4556;DHT22;2290;48.674;9.018;2023-03-01T15:52:27;20.20;55.30
4556;DHT22;2290;48.674;9.018;2023-03-01T15:54:58;20.10;55.20
4556;DHT22;2290;48.674;9.018;2023-03-01T15:57:24;19.80;54.80
4556;DHT22;2290;48.674;9.018;2023-03-01T15:59:50;19.60;55.70
4556;DHT22;2290;48.674;9.018;2023-03-01T16:02:16;19.60;55.50
4556;DHT22;2290;48.674;9.018;2023-03-01T16:04:41;19.30;55.90
4556;DHT22;2290;48.674;9.018;2023-03-01T16:07:09;19.00;56.00
4556;DHT22;2290;48.674;9.018;2023-03-01T16:09:35;18.40;56.40
4556;DHT22;2290;48.674;9.018;2023-03-01T16:12:02;18.00;57.80
4556;DHT22;2290;48.674;9.018;2023-03-01T16:14:28;17.80;57.50
4556;DHT22;2290;48.674;9.018;2023-03-01T16:16:55;17.60;57.80
4556;DHT22;2290;48.674;9.018;2023-03-01T16:19:20;17.20;58.10
4556;DHT22;2290;48.674;9.018;2023-03-01T16:21:46;16.80;58.00
4556;DHT22;2290;48.674;9.018;2023-03-01T16:24:15;16.70;58.50
4556;DHT22;2290;48.674;9.018;2023-03-01T16:26:42;16.20;58.80
4556;DHT22;2290;48.674;9.018;2023-03-01T16:29:08;15.80;59.30
4556;DHT22;2290;48.674;9.018;2023-03-01T16:31:36;15.30;59.50
4556;DHT22;2290;48.674;9.018;2023-03-01T16:34:01;14.30;60.10
4556;DHT22;2290;48.674;9.018;2023-03-01T16:36:27;13.40;61.80
4556;DHT22;2290;48.674;9.018;2023-03-01T16:39:00;12.70;64.30
4556;DHT22;2290;48.674;9.018;2023-03-01T16:41:29;12.20;64.70
4556;DHT22;2290;48.674;9.018;2023-03-01T16:43:56;11.80;65.30
4556;DHT22;2290;48.674;9.018;2023-03-01T16:46:24;11.40;65.40
4556;DHT22;2290;48.674;9.018;2023-03-01T16:48:50;10.90;66.00
4556;DHT22;2290;48.674;9.018;2023-03-01T16:51:17;10.30;67.80
4556;DHT22;2290;48.674;9.018;2023-03-01T16:53:43;9.70;70.60
4556;DHT22;2290;48.674;9.018;2023-03-01T16:56:10;9.30;70.90
4556;DHT22;2290;48.674;9.018;2023-03-01T16:58:38;8.90;72.70
4556;DHT22;2290;48.674;9.018;2023-03-01T17:01:10;8.70;73.70
4556;DHT22;2290;48.674;9.018;2023-03-01T17:03:42;8.40;74.70
4556;DHT22;2290;48.674;9.018;2023-03-01T17:06:11;8.20;76.10
4556;DHT22;2290;48.674;9.018;2023-03-01T17:08:38;8.10;79.80
4556;DHT22;2290;48.674;9.018;2023-03-01T17:11:09;8.00;81.20
4556;DHT22;2290;48.674;9.018;2023-03-01T17:13:36;7.90;79.30
4556;DHT22;2290;48.674;9.018;2023-03-01T17:16:06;7.70;79.40
4556;DHT22;2290;48.674;9.018;2023-03-01T17:18:32;7.70;79.90
4556;DHT22;2290;48.674;9.018;2023-03-01T17:20:59;7.60;79.80
4556;DHT22;2290;48.674;9.018;2023-03-01T17:23:25;7.40;80.30
4556;DHT22;2290;48.674;9.018;2023-03-01T17:25:52;7.30;80.60
4556;DHT22;2290;48.674;9.018;2023-03-01T17:28:25;7.20;81.50
4556;DHT22;2290;48.674;9.018;2023-03-01T17:31:00;7.20;82.50
4556;DHT22;2290;48.674;9.018;2023-03-01T17:33:27;7.00;83.20
4556;DHT22;2290;48.674;9.018;2023-03-01T17:35:57;6.90;83.90
4556;DHT22;2290;48.674;9.018;2023-03-01T17:38:24;6.80;84.30
4556;DHT22;2290;48.674;9.018;2023-03-01T17:41:17;6.70;84.80
4556;DHT22;2290;48.674;9.018;2023-03-01T17:43:50;6.70;85.60
4556;DHT22;2290;48.674;9.018;2023-03-01T17:46:35;6.60;86.00
4556;DHT22;2290;48.674;9.018;2023-03-01T17:49:40;6.50;86.60
4556;DHT22;2290;48.674;9.018;2023-03-01T17:52:24;6.50;87.20
4556;DHT22;2290;48.674;9.018;2023-03-01T17:57:43;6.30;88.10
4556;DHT22;2290;48.674;9.018;2023-03-01T18:00:15;6.20;88.70
4556;DHT22;2290;48.674;9.018;2023-03-01T18:02:43;6.10;88.90
4556;DHT22;2290;48.674;9.018;2023-03-01T18:05:24;6.00;89.40
4556;DHT22;2290;48.674;9.018;2023-03-01T18:14:39;5.90;90.50
4556;DHT22;2290;48.674;9.018;2023-03-01T18:17:28;5.90;90.60
4556;DHT22;2290;48.674;9.018;2023-03-01T18:37:14;5.60;91.90
4556;DHT22;2290;48.674;9.018;2023-03-01T18:47:23;5.40;92.00
4556;DHT22;2290;48.674;9.018;2023-03-01T18:57:42;5.20;92.90
4556;DHT22;2290;48.674;9.018;2023-03-01T19:18:10;4.90;93.70
4556;DHT22;2290;48.674;9.018;2023-03-01T19:21:09;5.00;94.00
4556;DHT22;2290;48.674;9.018;2023-03-01T19:23:47;5.00;94.00
4556;DHT22;2290;48.674;9.018;2023-03-01T19:26:19;4.90;94.10
4556;DHT22;2290;48.674;9.018;2023-03-01T19:28:49;4.80;94.20
4556;DHT22;2290;48.674;9.018;2023-03-01T19:31:20;4.70;94.40
4556;DHT22;2290;48.674;9.018;2023-03-01T19:37:44;4.70;94.70
4556;DHT22;2290;48.674;9.018;2023-03-01T19:59:14;4.20;95.30
4556;DHT22;2290;48.674;9.018;2023-03-01T20:50:11;3.50;97.50
4556;DHT22;2290;48.674;9.018;2023-03-01T20:59:56;3.30;98.10